Time;durP1;ratioP1;P1;durP2;ratioP2;P2;SDS_P1;SDS_P2;PMS_P1;PMS_P2;Temp;Humidity;BMP_temperature;BMP_pressure;BME280_temperature;BME280_humidity;BME280_pressure;Samples;Min_cycle;Max_cycle;Signal;HPM_P1;HPM_P2
2022/06/25 06:17:02;;;;;;;4.97;0.50;;;17.20;59.90;;;;;;5062773;27;20401;-64
2022/06/25 06:19:29;;;;;;;4.10;0.63;;;16.90;60.80;;;;;;5062850;28;20035;-64
2022/06/25 06:21:56;;;;;;;1.30;0.40;;;16.70;60.60;;;;;;5063208;28;20032;-64
2022/06/25 06:24:24;;;;;;;8.70;0.90;;;16.40;61.70;;;;;;5063207;28;20061;-65
2022/06/25 06:26:51;;;;;;;2.55;0.55;;;16.40;61.70;;;;;;5061288;28;20036;-64
2022/06/25 06:29:18;;;;;;;3.00;1.10;;;16.30;61.10;;;;;;5061404;28;20031;-64
2022/06/25 06:31:46;;;;;;;1.63;0.40;;;16.20;61.20;;;;;;5061211;28;20126;-64
2022/06/25 06:34:13;;;;;;;4.43;0.70;;;16.10;61.40;;;;;;5062636;28;20173;-63
2022/06/25 06:36:40;;;;;;;1.85;0.43;;;15.90;61.90;;;;;;5062302;28;20516;-64
2022/06/25 06:39:07;;;;;;;4.05;0.63;;;15.80;62.80;;;;;;5060814;28;20626;-63
2022/06/25 06:41:35;;;;;;;1.02;0.30;;;15.60;63.50;;;;;;5062543;28;20099;-63
2022/06/25 06:44:02;;;;;;;2.13;0.32;;;15.40;64.00;;;;;;5062554;28;20059;-64
2022/06/25 06:46:29;;;;;;;7.88;0.73;;;15.20;64.80;;;;;;5062617;28;20162;-63
2022/06/25 06:48:57;;;;;;;1.45;0.43;;;15.10;65.10;;;;;;5062422;28;20108;-64
2022/06/25 06:51:24;;;;;;;0.93;0.50;;;14.90;66.30;;;;;;5062360;28;20078;-64
2022/06/25 06:53:51;;;;;;;2.45;1.02;;;14.80;65.90;;;;;;5062441;28;20020;-64
2022/06/25 06:56:18;;;;;;;0.70;0.50;;;14.70;66.30;;;;;;5060794;28;20048;-64
2022/06/25 06:58:47;;;;;;;1.90;0.50;;;14.50;67.20;;;;;;5045195;28;20030;-63
2022/06/25 07:01:14;;;;;;;0.82;0.47;;;14.40;68.00;;;;;;5043331;28;20021;-64
2022/06/25 07:03:41;;;;;;;2.53;0.43;;;14.30;68.40;;;;;;5044384;28;20032;-64
2022/06/25 07:06:08;;;;;;;1.27;0.50;;;14.10;68.90;;;;;;5044352;28;20112;-64
2022/06/25 07:08:36;;;;;;;3.53;0.40;;;14.00;69.20;;;;;;5044351;28;20529;-64
2022/06/25 07:11:28;;;;;;;2.28;0.70;;;13.80;69.70;;;;;;5043408;28;20081;-64
2022/06/25 07:13:50;;;;;;;5.40;0.60;;;13.60;70.50;;;;;;5042554;28;20025;-64
2022/06/25 07:16:17;;;;;;;1.50;0.50;;;13.40;71.60;;;;;;5041750;28;20450;-63
2022/06/25 07:18:45;;;;;;;2.05;0.60;;;13.30;72.30;;;;;;5041880;28;20022;-64
2022/06/25 07:21:12;;;;;;;2.28;0.60;;;13.10;72.90;;;;;;5041892;28;20053;-64
2022/06/25 07:23:39;;;;;;;2.78;0.50;;;12.90;73.00;;;;;;5041086;28;20395;-63
2022/06/25 07:26:06;;;;;;;0.55;0.40;;;12.80;73.30;;;;;;5040998;28;20048;-63
2022/06/25 07:28:34;;;;;;;0.98;0.40;;;12.70;73.60;;;;;;5028249;28;20026;-64
2022/06/25 07:31:01;;;;;;;1.38;1.05;;;12.60;73.30;;;;;;5028440;28;20592;-63
2022/06/25 07:33:31;;;;;;;0.90;0.30;;;12.50;73.90;;;;;;5029002;28;20039;-64
2022/06/25 07:35:59;;;;;;;1.95;0.40;;;12.40;74.80;;;;;;5028060;28;20041;-64
2022/06/25 07:38:26;;;;;;;3.92;1.45;;;12.30;74.60;;;;;;5028967;28;20029;-64
2022/06/25 07:40:54;;;;;;;1.25;0.38;;;12.20;75.40;;;;;;5030174;28;20401;-61
2022/06/25 07:43:21;;;;;;;0.60;0.30;;;12.10;76.00;;;;;;5029249;28;20104;-66
2022/06/25 07:45:49;;;;;;;1.40;0.40;;;12.20;76.00;;;;;;5030720;28;20470;-66
2022/06/25 07:48:17;;;;;;;3.80;0.77;;;12.10;76.00;;;;;;5030198;28;20448;-68
2022/06/25 07:53:30;;;;;;;1.45;0.75;;;12.00;76.00;;;;;;5030322;28;20036;-69
2022/06/25 07:55:57;;;;;;;1.35;0.52;;;11.90;76.40;;;;;;5030652;28;20394;-68
2022/06/25 07:58:24;;;;;;;1.33;0.68;;;11.90;76.90;;;;;;5033928;28;20016;-68
2022/06/25 08:00:52;;;;;;;1.40;0.80;;;11.80;77.10;;;;;;5048257;28;20119;-68
2022/06/25 08:03:19;;;;;;;3.72;1.10;;;11.80;77.50;;;;;;5048585;28;20033;-71
2022/06/25 08:05:47;;;;;;;3.28;1.10;;;11.70;77.70;;;;;;5048121;28;20025;-70
2022/06/25 08:08:14;;;;;;;3.20;1.00;;;11.70;78.20;;;;;;5048490;28;20017;-71
2022/06/25 08:10:42;;;;;;;3.92;1.20;;;11.80;78.40;;;;;;5046095;28;20764;-70
2022/06/25 08:13:10;;;;;;;3.88;1.35;;;11.80;78.90;;;;;;5036941;28;20033;-66
2022/06/25 08:15:37;;;;;;;4.22;1.60;;;11.80;78.20;;;;;;5026044;28;20563;-72
2022/06/25 08:18:04;;;;;;;6.30;1.42;;;11.90;78.50;;;;;;5028828;28;20080;-70
2022/06/25 08:20:32;;;;;;;5.50;2.60;;;12.00;79.10;;;;;;5028762;28;20049;-69
2022/06/25 08:22:59;;;;;;;14.55;8.40;;;12.10;78.80;;;;;;5029440;28;20037;-69
2022/06/25 08:25:26;;;;;;;10.45;6.43;;;12.10;78.40;;;;;;5026267;28;20096;-70
2022/06/25 08:27:55;;;;;;;12.10;7.65;;;12.00;78.20;;;;;;5027510;28;20108;-70
2022/06/25 08:30:23;;;;;;;17.90;11.57;;;12.00;78.60;;;;;;5028420;28;20037;-70
2022/06/25 08:32:51;;;;;;;14.90;9.38;;;12.00;79.20;;;;;;5026768;28;20079;-70
2022/06/25 08:35:18;;;;;;;11.68;7.05;;;12.00;80.20;;;;;;5027375;28;20029;-70
2022/06/25 08:37:48;;;;;;;9.63;5.88;;;11.90;80.00;;;;;;5026347;28;20036;-70
2022/06/25 08:40:18;;;;;;;8.50;4.07;;;11.80;79.40;;;;;;5028187;28;20018;-70
2022/06/25 08:42:47;;;;;;;9.25;4.38;;;11.70;80.00;;;;;;5027658;28;20026;-71
2022/06/25 08:45:17;;;;;;;6.28;3.38;;;11.60;80.30;;;;;;5027404;28;20533;-70
2022/06/25 08:47:47;;;;;;;6.13;3.58;;;11.60;81.00;;;;;;5028451;28;20104;-70
2022/06/25 08:50:16;;;;;;;8.98;2.83;;;11.60;80.10;;;;;;5028584;28;20051;-71
2022/06/25 08:52:46;;;;;;;7.68;2.40;;;11.40;80.50;;;;;;5028841;28;20439;-71
2022/06/25 08:55:39;;;;;;;4.90;2.05;;;11.30;80.20;;;;;;5028761;28;20034;-72
2022/06/25 08:58:09;;;;;;;5.18;1.95;;;11.10;80.30;;;;;;5027235;28;20029;-70
2022/06/25 09:00:39;;;;;;;3.63;2.17;;;11.00;81.10;;;;;;5028148;28;20072;-70
2022/06/25 09:03:08;;;;;;;3.42;1.80;;;10.90;81.40;;;;;;5028589;28;20048;-70
2022/06/25 09:05:39;;;;;;;4.25;2.28;;;10.70;81.40;;;;;;5028455;28;20028;-70
2022/06/25 09:08:12;;;;;;;7.97;3.63;;;10.60;82.90;;;;;;5028492;28;20026;-73
2022/06/25 09:10:41;;;;;;;13.60;6.60;;;10.50;84.70;;;;;;5028369;28;20029;-69
2022/06/25 09:13:10;;;;;;;14.82;7.35;;;10.50;84.70;;;;;;5027426;28;20029;-69
2022/06/25 09:15:43;;;;;;;12.90;5.60;;;10.40;85.30;;;;;;5026862;28;20050;-69
2022/06/25 09:18:16;;;;;;;11.48;4.40;;;10.40;85.10;;;;;;5042339;28;20028;-69
2022/06/25 09:20:56;;;;;;;8.40;3.70;;;10.30;85.40;;;;;;5044070;28;20028;-67
2022/06/25 09:23:23;;;;;;;19.70;4.45;;;10.20;85.50;;;;;;5045863;28;20027;-67
2022/06/25 09:26:10;;;;;;;11.57;3.33;;;10.20;85.60;;;;;;5047148;28;20040;-64
2022/06/25 09:28:46;;;;;;;8.05;3.25;;;10.10;85.80;;;;;;5047096;28;20059;-63
2022/06/25 09:31:33;;;;;;;11.15;4.78;;;10.10;85.80;;;;;;5043935;28;20533;-63
2022/06/25 09:34:07;;;;;;;12.23;3.88;;;10.10;85.40;;;;;;5034240;28;20059;-66
2022/06/25 09:36:36;;;;;;;9.43;4.38;;;10.10;85.30;;;;;;5030541;28;20501;-63
2022/06/25 09:39:04;;;;;;;10.90;2.25;;;10.10;85.20;;;;;;5035136;28;20032;-61
2022/06/25 09:41:57;;;;;;;7.97;3.72;;;10.00;85.70;;;;;;5037469;28;20531;-66
2022/06/25 09:44:26;;;;;;;8.23;3.30;;;10.00;85.60;;;;;;5037293;28;20057;-65
2022/06/25 09:46:58;;;;;;;8.23;3.28;;;9.90;86.10;;;;;;5030056;28;20171;-67
2022/06/25 09:49:26;;;;;;;14.43;3.33;;;9.90;86.00;;;;;;5027866;28;20020;-66
2022/06/25 09:52:03;;;;;;;11.70;3.17;;;9.80;86.00;;;;;;5030871;28;20049;-63
2022/06/25 09:54:31;;;;;;;12.52;4.38;;;9.70;85.80;;;;;;5027363;28;20433;-61
2022/06/25 09:57:01;;;;;;;9.23;4.07;;;9.60;86.30;;;;;;5027051;28;20061;-62
2022/06/25 09:59:31;;;;;;;13.75;4.25;;;9.50;87.00;;;;;;5027077;28;20484;-64
2022/06/25 10:02:01;;;;;;;9.13;4.00;;;9.40;87.90;;;;;;5033972;28;20021;-64
2022/06/25 10:04:30;;;;;;;15.93;4.57;;;9.40;88.50;;;;;;5035428;28;20505;-64
2022/06/25 10:07:02;;;;;;;12.15;3.42;;;9.40;89.30;;;;;;5036993;28;20043;-66
2022/06/25 10:09:31;;;;;;;12.40;3.47;;;9.40;89.80;;;;;;5037729;28;20491;-63
2022/06/25 10:11:58;;;;;;;13.95;4.15;;;9.40;90.30;;;;;;5036159;28;20508;-64
2022/06/25 10:14:26;;;;;;;16.08;3.97;;;9.40;90.10;;;;;;5035261;28;20017;-64
2022/06/25 10:16:54;;;;;;;14.63;5.60;;;9.30;89.70;;;;;;5035109;28;20469;-66
2022/06/25 10:19:26;;;;;;;23.35;7.72;;;9.30;90.00;;;;;;5035661;28;20096;-62
2022/06/25 10:21:54;;;;;;;14.00;6.40;;;9.20;90.10;;;;;;5036201;28;20032;-61
2022/06/25 10:24:22;;;;;;;19.45;6.53;;;9.10;90.20;;;;;;5042707;28;20212;-62
2022/06/25 10:26:50;;;;;;;24.75;7.97;;;9.00;90.60;;;;;;5041194;28;20116;-62
2022/06/25 10:29:31;;;;;;;21.70;8.52;;;8.90;90.70;;;;;;5044896;28;20025;-63
2022/06/25 10:32:18;;;;;;;14.75;6.38;;;8.90;91.70;;;;;;5046917;28;20090;-63
2022/06/25 10:35:01;;;;;;;19.95;6.07;;;8.90;91.10;;;;;;5046163;28;20032;-62
2022/06/25 10:37:48;;;;;;;14.32;5.32;;;8.80;90.70;;;;;;5046452;28;20393;-62
2022/06/25 10:40:19;;;;;;;17.02;5.00;;;8.70;90.40;;;;;;5046131;28;20064;-62
2022/06/25 10:43:01;;;;;;;28.73;5.18;;;8.60;90.70;;;;;;5044767;28;20060;-61
2022/06/25 10:45:34;;;;;;;11.18;5.03;;;8.60;91.00;;;;;;5046798;28;20032;-61
2022/06/25 10:48:05;;;;;;;21.00;6.25;;;8.50;91.00;;;;;;5044622;28;20345;-62
2022/06/25 10:50:32;;;;;;;17.75;6.68;;;8.40;91.40;;;;;;5038448;28;20037;-64
2022/06/25 10:53:06;;;;;;;12.10;4.97;;;8.40;91.80;;;;;;5037420;28;20044;-62
2022/06/25 10:55:38;;;;;;;17.00;4.88;;;8.40;92.10;;;;;;5044781;28;20371;-61
2022/06/25 10:58:18;;;;;;;11.20;4.75;;;8.40;92.60;;;;;;5045865;28;20021;-61
2022/06/25 11:00:52;;;;;;;11.80;3.42;;;8.40;92.40;;;;;;5045942;28;20031;-61
2022/06/25 11:03:40;;;;;;;9.32;3.53;;;8.40;92.60;;;;;;5048912;28;20029;-61
2022/06/25 11:06:19;;;;;;;5.35;2.78;;;8.40;92.50;;;;;;5049100;28;20045;-62
2022/06/25 11:08:47;;;;;;;4.80;2.85;;;8.40;92.50;;;;;;5040154;28;20091;-61
2022/06/25 11:11:33;;;;;;;6.40;2.85;;;8.40;92.40;;;;;;5040149;28;20101;-61
2022/06/25 11:14:03;;;;;;;11.05;3.15;;;8.40;92.60;;;;;;5041148;28;20021;-60
2022/06/25 11:16:31;;;;;;;4.25;3.25;;;8.40;92.30;;;;;;5038900;28;20060;-62
2022/06/25 11:19:00;;;;;;;6.55;3.00;;;8.30;92.00;;;;;;5041856;28;20021;-62
2022/06/25 11:21:42;;;;;;;5.75;3.53;;;8.30;91.90;;;;;;5050242;28;20029;-63
2022/06/25 11:24:19;;;;;;;18.50;7.28;;;8.10;91.80;;;;;;5049686;28;20036;-64
2022/06/25 11:29:51;;;;;;;66.82;24.55;;;8.10;92.40;;;;;;5030164;28;20072;-64
2022/06/25 11:32:30;;;;;;;57.92;23.83;;;8.00;92.40;;;;;;5029832;28;20478;-63
2022/06/25 11:35:01;;;;;;;25.05;10.35;;;8.00;92.80;;;;;;5029730;28;20048;-61
2022/06/25 11:37:31;;;;;;;15.43;7.60;;;8.00;93.50;;;;;;5029841;28;20032;-61
2022/06/25 11:39:58;;;;;;;14.25;6.90;;;8.00;93.10;;;;;;5030010;28;20056;-63
2022/06/25 11:42:25;;;;;;;14.35;6.88;;;8.00;92.90;;;;;;5029690;28;20033;-62
2022/06/25 11:44:56;;;;;;;21.70;7.15;;;7.90;92.80;;;;;;5029746;28;20071;-63
2022/06/25 11:47:26;;;;;;;13.98;9.15;;;7.80;92.80;;;;;;5029570;28;20057;-63
2022/06/25 11:49:57;;;;;;;16.30;9.10;;;7.70;92.90;;;;;;5038073;28;20021;-63
2022/06/25 11:52:26;;;;;;;15.30;9.60;;;7.60;92.90;;;;;;5049343;28;20361;-62
2022/06/25 11:54:54;;;;;;;16.23;10.77;;;7.60;93.20;;;;;;5047795;28;20467;-61
2022/06/25 11:57:27;;;;;;;16.17;9.52;;;7.50;93.50;;;;;;5029247;28;20030;-66
2022/06/25 11:59:56;;;;;;;17.42;9.40;;;7.50;93.50;;;;;;5046266;28;20040;-62
2022/06/25 12:02:23;;;;;;;19.48;8.50;;;7.50;93.50;;;;;;5036889;28;20025;-62
2022/06/25 12:04:56;;;;;;;20.63;10.05;;;7.40;93.30;;;;;;5039012;28;20082;-65
2022/06/25 12:07:26;;;;;;;21.50;11.98;;;7.30;93.20;;;;;;5038748;28;20576;-63
2022/06/25 12:10:09;;;;;;;19.35;10.73;;;7.20;93.70;;;;;;5038113;28;20063;-60
2022/06/25 12:12:39;;;;;;;16.30;9.15;;;7.30;94.30;;;;;;5039474;28;20025;-63
2022/06/25 12:15:08;;;;;;;18.27;10.10;;;7.30;93.90;;;;;;5038308;28;20141;-62
2022/06/25 12:17:36;;;;;;;15.82;8.82;;;7.20;93.80;;;;;;5037344;28;20057;-62
2022/06/25 12:20:09;;;;;;;16.40;9.40;;;7.20;93.40;;;;;;5029334;28;20120;-65
2022/06/25 12:22:40;;;;;;;26.92;13.25;;;7.10;93.30;;;;;;5037404;28;20033;-64
2022/06/25 12:25:10;;;;;;;20.88;11.63;;;7.00;93.60;;;;;;5037199;28;20025;-63
2022/06/25 12:27:50;;;;;;;22.55;12.38;;;7.00;93.60;;;;;;5038537;28;20429;-63
2022/06/25 12:30:29;;;;;;;22.95;12.57;;;6.90;93.90;;;;;;5039026;28;20036;-64
2022/06/25 12:33:09;;;;;;;24.25;13.50;;;6.80;94.30;;;;;;5036865;28;20493;-65
2022/06/25 12:35:44;;;;;;;23.00;14.02;;;6.90;94.70;;;;;;5036028;28;20473;-65
2022/06/25 12:38:15;;;;;;;20.77;12.43;;;6.80;94.80;;;;;;5027181;28;20060;-62
2022/06/25 12:40:45;;;;;;;16.48;10.60;;;6.90;94.90;;;;;;5035074;28;20029;-62
2022/06/25 12:43:14;;;;;;;21.55;10.55;;;6.80;94.80;;;;;;5039964;28;20486;-64
2022/06/25 12:45:44;;;;;;;24.63;12.98;;;6.80;94.90;;;;;;5038400;28;20029;-62
2022/06/25 12:48:12;;;;;;;26.05;14.02;;;6.80;94.80;;;;;;5032936;28;20113;-64
2022/06/25 12:50:45;;;;;;;22.90;13.48;;;6.80;94.80;;;;;;5043718;28;20395;-63
2022/06/25 12:53:15;;;;;;;19.50;11.90;;;6.80;95.10;;;;;;5044821;28;20017;-66
2022/06/25 12:55:47;;;;;;;23.38;12.48;;;6.80;95.20;;;;;;5033042;28;20034;-66
2022/06/25 12:58:15;;;;;;;27.02;12.18;;;6.70;95.00;;;;;;5038570;28;20064;-65
2022/06/25 13:00:48;;;;;;;18.67;10.60;;;6.70;94.90;;;;;;5033485;28;20053;-64
2022/06/25 13:03:16;;;;;;;22.05;12.10;;;6.60;94.90;;;;;;5038268;28;20100;-64
2022/06/25 13:05:43;;;;;;;18.42;11.82;;;6.60;94.90;;;;;;5032957;28;20032;-64
2022/06/25 13:08:10;;;;;;;22.58;12.95;;;6.50;94.90;;;;;;5037929;28;20032;-65
2022/06/25 13:10:38;;;;;;;24.77;14.73;;;6.50;95.00;;;;;;5042972;28;20025;-63
2022/06/25 13:13:05;;;;;;;22.85;13.95;;;6.40;95.20;;;;;;5035058;28;20052;-65
2022/06/25 13:15:34;;;;;;;30.02;16.05;;;6.40;95.20;;;;;;5033732;28;20056;-66
2022/06/25 13:18:02;;;;;;;31.83;18.92;;;6.40;95.30;;;;;;5043944;28;20486;-64
2022/06/25 13:20:32;;;;;;;29.30;16.77;;;6.40;95.70;;;;;;5042819;28;20061;-65
2022/06/25 13:22:59;;;;;;;27.35;18.15;;;6.40;95.70;;;;;;5031579;28;20037;-65
2022/06/25 13:25:26;;;;;;;28.98;15.98;;;6.40;95.60;;;;;;5029696;28;20121;-65
2022/06/25 13:27:54;;;;;;;29.02;17.88;;;6.40;95.80;;;;;;5028495;28;20021;-63
2022/06/25 13:30:21;;;;;;;29.90;17.17;;;6.30;95.60;;;;;;5038367;28;20117;-63
2022/06/25 13:32:48;;;;;;;27.88;17.75;;;6.30;95.90;;;;;;5029864;28;20036;-63
2022/06/25 13:35:17;;;;;;;26.00;18.05;;;6.40;96.10;;;;;;5030109;28;20363;-63
2022/06/25 13:37:47;;;;;;;29.27;18.33;;;6.40;96.20;;;;;;5028560;28;20041;-64
2022/06/25 13:40:14;;;;;;;37.55;20.58;;;6.40;96.50;;;;;;5041750;28;20608;-66
2022/06/25 13:42:50;;;;;;;27.67;17.08;;;6.40;96.30;;;;;;5037854;28;20100;-68
2022/06/25 13:45:18;;;;;;;29.85;18.17;;;6.40;96.10;;;;;;5033383;28;20116;-65
2022/06/25 13:47:45;;;;;;;31.83;18.58;;;6.30;96.00;;;;;;5029056;28;20056;-65
2022/06/25 13:50:12;;;;;;;28.33;17.17;;;6.20;95.80;;;;;;5038372;28;20017;-66
2022/06/25 13:52:39;;;;;;;29.50;17.60;;;6.20;96.00;;;;;;5030979;28;20495;-65
2022/06/25 13:55:07;;;;;;;26.52;16.70;;;6.20;96.10;;;;;;5036281;28;20032;-66
2022/06/25 13:57:34;;;;;;;30.38;20.58;;;6.10;95.90;;;;;;5028139;28;20037;-66
2022/06/25 14:00:02;;;;;;;43.63;26.55;;;6.10;96.00;;;;;;5027779;28;20080;-66
2022/06/25 14:02:29;;;;;;;42.83;26.80;;;6.10;96.30;;;;;;5027007;28;20030;-66
2022/06/25 14:04:56;;;;;;;37.38;22.75;;;6.00;96.10;;;;;;5027299;28;20028;-66
2022/06/25 14:07:24;;;;;;;36.78;22.35;;;6.00;96.10;;;;;;5042802;28;20465;-67
2022/06/25 14:09:51;;;;;;;32.00;22.10;;;6.00;96.30;;;;;;5047109;28;20685;-66
2022/06/25 14:12:18;;;;;;;38.38;21.60;;;6.00;96.50;;;;;;5046949;28;20036;-66
2022/06/25 14:14:45;;;;;;;31.30;20.90;;;6.00;96.50;;;;;;5027666;28;20033;-67
2022/06/25 14:17:13;;;;;;;28.65;18.65;;;6.00;96.60;;;;;;5026774;28;20394;-67
2022/06/25 14:19:40;;;;;;;31.08;19.92;;;6.00;96.60;;;;;;5027161;28;20030;-67
2022/06/25 14:22:08;;;;;;;31.50;18.73;;;6.00;96.80;;;;;;5028520;28;20048;-65
2022/06/25 14:27:21;;;;;;;30.85;17.95;;;6.00;96.70;;;;;;5038964;28;20421;-67
2022/06/25 14:29:48;;;;;;;29.38;18.83;;;5.90;96.60;;;;;;5042995;28;20028;-66
2022/06/25 14:32:15;;;;;;;29.40;18.70;;;5.90;96.60;;;;;;5032199;28;20025;-66
2022/06/25 14:34:42;;;;;;;31.05;18.77;;;5.90;96.70;;;;;;5029002;28;20598;-66
2022/06/25 14:42:40;;;;;;;25.50;16.17;;;5.80;96.60;;;;;;5048298;28;19924;-66
2022/06/25 14:45:07;;;;;;;28.65;17.35;;;5.70;96.30;;;;;;5047446;28;20028;-66
2022/06/25 14:47:35;;;;;;;24.35;15.07;;;5.60;96.30;;;;;;5034031;28;20469;-68
2022/06/25 14:50:03;;;;;;;22.77;16.70;;;5.60;96.40;;;;;;5045865;28;20033;-66
2022/06/25 14:52:30;;;;;;;29.38;16.75;;;5.50;96.40;;;;;;5041812;28;20480;-66
2022/06/25 14:54:57;;;;;;;21.70;14.98;;;5.50;96.60;;;;;;5045755;28;20025;-66
2022/06/25 14:57:24;;;;;;;30.00;17.80;;;5.50;96.70;;;;;;5035219;28;20112;-66
2022/06/25 14:59:51;;;;;;;32.47;18.27;;;5.50;96.70;;;;;;5033757;28;20021;-66
2022/06/25 15:02:19;;;;;;;29.13;17.95;;;5.60;98.00;;;;;;5046958;28;20142;-66
2022/06/25 15:04:46;;;;;;;30.23;17.48;;;5.70;97.60;;;;;;5036147;28;20037;-66
2022/06/25 15:07:13;;;;;;;25.88;16.10;;;5.70;97.40;;;;;;5032231;28;20025;-66
2022/06/25 15:09:41;;;;;;;22.15;15.43;;;5.70;97.70;;;;;;5032836;28;20033;-66
2022/06/25 15:12:08;;;;;;;22.67;13.90;;;5.60;97.20;;;;;;5041078;28;20017;-66
2022/06/25 15:14:35;;;;;;;23.15;15.02;;;5.60;97.40;;;;;;5044466;28;20442;-66
2022/06/25 15:17:03;;;;;;;20.58;13.35;;;5.60;97.40;;;;;;5042763;28;20036;-65
2022/06/25 15:19:30;;;;;;;26.15;14.48;;;5.60;97.10;;;;;;5051068;28;20112;-66
2022/06/25 15:21:57;;;;;;;23.23;14.73;;;5.50;97.10;;;;;;5033959;28;20029;-66
2022/06/25 15:24:24;;;;;;;22.83;13.77;;;5.50;97.20;;;;;;5038876;28;20370;-65
2022/06/25 15:26:52;;;;;;;19.92;13.77;;;5.50;97.30;;;;;;5052370;28;20021;-66
2022/06/25 15:29:19;;;;;;;47.65;23.95;;;5.50;97.70;;;;;;5038764;28;20036;-66
2022/06/25 15:31:46;;;;;;;57.22;28.48;;;5.60;97.70;;;;;;5032291;28;20025;-66
2022/06/25 15:34:14;;;;;;;57.40;28.55;;;5.60;97.60;;;;;;5032149;28;20433;-66
2022/06/25 15:36:41;;;;;;;53.63;27.70;;;5.60;97.70;;;;;;5040730;28;20049;-67
2022/06/25 15:39:08;;;;;;;46.22;25.25;;;5.60;97.50;;;;;;5038647;28;20021;-67
2022/06/25 15:41:35;;;;;;;30.58;18.45;;;5.50;97.40;;;;;;5052426;28;20029;-67
2022/06/25 15:44:03;;;;;;;27.90;17.67;;;5.50;97.60;;;;;;5052437;28;20021;-65
2022/06/25 15:46:31;;;;;;;25.75;16.42;;;5.50;97.50;;;;;;5051829;28;20492;-65
2022/06/25 15:48:58;;;;;;;23.90;16.20;;;5.50;97.60;;;;;;5051557;28;20028;-66
2022/06/25 15:51:25;;;;;;;28.30;15.43;;;5.50;97.60;;;;;;5052022;28;20033;-66
2022/06/25 15:53:52;;;;;;;27.70;15.63;;;5.50;97.70;;;;;;5049418;28;20127;-66
2022/06/25 15:56:20;;;;;;;24.70;16.42;;;5.50;97.80;;;;;;5032879;28;20064;-66
2022/06/25 16:01:32;;;;;;;25.58;16.60;;;5.40;97.80;;;;;;5038584;28;20036;-66
2022/06/25 16:03:59;;;;;;;28.63;15.95;;;5.40;97.70;;;;;;5040784;28;20127;-66
2022/06/25 16:06:27;;;;;;;20.73;14.00;;;5.40;97.70;;;;;;5050173;28;20032;-66
2022/06/25 16:08:54;;;;;;;21.83;13.80;;;5.40;97.60;;;;;;5050156;28;20034;-66
2022/06/25 16:11:34;;;;;;;25.70;13.65;;;5.40;97.60;;;;;;5035954;28;20083;-66
2022/06/25 16:14:08;;;;;;;21.35;12.13;;;5.30;97.40;;;;;;5031838;28;20060;-65
2022/06/25 16:16:37;;;;;;;18.85;13.02;;;5.30;97.50;;;;;;5045228;28;20073;-66
2022/06/25 16:19:05;;;;;;;21.52;14.38;;;5.20;97.40;;;;;;5047517;28;20469;-66
2022/06/25 16:21:36;;;;;;;20.88;13.85;;;5.20;97.40;;;;;;5051903;28;20103;-66
2022/06/25 16:24:06;;;;;;;21.48;14.10;;;5.10;97.30;;;;;;5043654;28;20033;-66
2022/06/25 16:26:35;;;;;;;25.48;13.40;;;5.00;97.10;;;;;;5048597;28;20504;-66
2022/06/25 16:29:02;;;;;;;22.65;13.45;;;5.00;97.30;;;;;;5050068;28;20100;-66
2022/06/25 16:31:30;;;;;;;22.42;13.65;;;5.00;97.60;;;;;;5044883;28;20440;-66
2022/06/25 16:33:57;;;;;;;20.63;14.10;;;5.00;97.50;;;;;;5036734;28;20057;-66
2022/06/25 16:36:25;;;;;;;24.48;14.82;;;5.00;97.40;;;;;;5030239;28;20547;-66
2022/06/25 16:38:56;;;;;;;23.33;14.73;;;4.90;97.40;;;;;;5031110;28;20029;-66
2022/06/25 16:41:26;;;;;;;20.95;13.00;;;4.90;97.50;;;;;;5036482;28;20107;-66
2022/06/25 16:44:00;;;;;;;22.25;13.43;;;4.80;97.30;;;;;;5046208;28;20522;-66
2022/06/25 16:46:32;;;;;;;20.85;11.77;;;4.80;97.30;;;;;;5049751;28;20037;-66
2022/06/25 16:49:01;;;;;;;16.67;10.88;;;4.80;97.30;;;;;;5045715;28;20044;-67
2022/06/25 16:51:28;;;;;;;24.02;12.65;;;4.70;97.30;;;;;;5046106;28;20144;-66
2022/06/25 16:53:59;;;;;;;19.63;10.65;;;4.70;97.40;;;;;;5039039;28;20101;-66
2022/06/25 16:56:27;;;;;;;18.35;11.43;;;4.70;97.40;;;;;;5044985;28;20037;-67
2022/06/25 16:58:55;;;;;;;17.08;12.05;;;4.70;97.60;;;;;;5046123;28;20079;-66
2022/06/25 17:01:22;;;;;;;20.45;12.35;;;4.70;97.80;;;;;;5037450;28;20478;-66
2022/06/25 17:03:50;;;;;;;22.42;13.30;;;4.70;97.80;;;;;;5045957;28;20032;-67
2022/06/25 17:06:17;;;;;;;23.73;13.57;;;4.70;98.10;;;;;;5032174;28;20033;-66
2022/06/25 17:08:44;;;;;;;18.70;11.90;;;4.70;97.90;;;;;;5047615;28;20421;-66
2022/06/25 17:11:12;;;;;;;20.88;12.25;;;4.70;97.90;;;;;;5048151;28;20500;-66
2022/06/25 17:13:39;;;;;;;19.13;11.80;;;4.60;97.90;;;;;;5039192;28;20028;-66
2022/06/25 17:16:07;;;;;;;19.00;11.73;;;4.70;98.00;;;;;;5043658;28;20049;-67
2022/06/25 17:18:35;;;;;;;20.58;11.75;;;4.60;97.70;;;;;;5042103;28;20032;-66
2022/06/25 17:21:04;;;;;;;18.90;11.27;;;4.70;97.80;;;;;;5034707;28;20021;-66
2022/06/25 17:23:31;;;;;;;18.17;11.35;;;4.70;97.80;;;;;;5030660;28;20029;-66
2022/06/25 17:25:59;;;;;;;19.70;11.35;;;4.60;97.70;;;;;;5029838;28;20021;-66
2022/06/25 17:28:26;;;;;;;17.30;11.38;;;4.60;97.70;;;;;;5048402;28;20100;-66
2022/06/25 17:30:53;;;;;;;15.30;10.82;;;4.60;97.60;;;;;;5046604;28;20036;-67
2022/06/25 17:33:21;;;;;;;22.60;11.50;;;4.50;97.50;;;;;;5038085;28;20398;-66
2022/06/25 17:35:48;;;;;;;15.63;10.40;;;4.40;97.60;;;;;;5040881;28;20135;-66
2022/06/25 17:38:16;;;;;;;15.82;10.93;;;4.40;97.70;;;;;;5037618;28;20040;-66
2022/06/25 17:40:43;;;;;;;16.90;11.70;;;4.40;97.90;;;;;;5038161;28;20393;-66
2022/06/25 17:43:10;;;;;;;17.67;10.55;;;4.50;98.10;;;;;;5039336;28;20033;-66
2022/06/25 17:45:38;;;;;;;23.00;10.13;;;4.50;98.10;;;;;;5044701;28;20037;-67
2022/06/25 17:48:06;;;;;;;22.48;11.88;;;4.40;98.00;;;;;;5041023;28;20036;-66
2022/06/25 17:50:34;;;;;;;22.83;11.00;;;4.40;98.00;;;;;;5047445;28;20029;-67
2022/06/25 17:53:01;;;;;;;21.85;12.93;;;4.50;98.30;;;;;;5034914;28;20112;-67
2022/06/25 17:55:28;;;;;;;21.25;12.40;;;4.50;98.40;;;;;;5034956;28;20037;-66
2022/06/25 17:57:56;;;;;;;23.15;13.05;;;4.50;98.50;;;;;;5029280;28;20040;-66
2022/06/25 18:00:26;;;;;;;18.15;12.05;;;4.60;98.90;;;;;;5029770;28;20017;-66
2022/06/25 18:02:54;;;;;;;19.08;11.35;;;4.60;98.70;;;;;;5029966;28;20072;-66
2022/06/25 18:05:21;;;;;;;18.10;11.07;;;4.70;98.90;;;;;;5029679;28;20026;-66
2022/06/25 18:07:49;;;;;;;18.65;10.23;;;4.60;98.40;;;;;;5037541;28;20039;-66
2022/06/25 18:10:16;;;;;;;21.92;10.98;;;4.60;98.50;;;;;;5049403;28;20585;-66
2022/06/25 18:12:45;;;;;;;19.17;10.88;;;4.60;98.50;;;;;;5039444;28;20378;-67
2022/06/25 18:15:12;;;;;;;17.58;11.10;;;4.60;98.60;;;;;;5044846;28;20041;-66
2022/06/25 18:17:40;;;;;;;19.52;11.27;;;4.60;98.50;;;;;;5040282;28;20052;-66
2022/06/25 18:20:09;;;;;;;22.20;12.25;;;4.70;98.70;;;;;;5047284;28;20080;-67
2022/06/25 18:22:37;;;;;;;22.23;12.75;;;4.70;98.90;;;;;;5037742;28;20111;-67
2022/06/25 18:25:04;;;;;;;19.45;12.63;;;4.80;99.10;;;;;;5048725;28;20029;-67
2022/06/25 18:27:32;;;;;;;20.98;13.43;;;4.70;98.80;;;;;;5033494;28;20106;-66
2022/06/25 18:29:59;;;;;;;16.50;10.55;;;4.70;98.50;;;;;;5049285;28;20041;-66
2022/06/25 18:32:27;;;;;;;20.27;11.77;;;4.70;98.50;;;;;;5046528;28;20036;-66
2022/06/25 18:34:55;;;;;;;18.13;11.43;;;4.70;98.40;;;;;;5047580;28;20033;-66
2022/06/25 18:37:22;;;;;;;15.40;9.65;;;4.60;98.30;;;;;;5048126;28;20404;-67
2022/06/25 18:39:49;;;;;;;19.85;11.13;;;4.60;98.30;;;;;;5040330;28;20033;-66
2022/06/25 18:42:17;;;;;;;19.83;11.68;;;4.50;98.20;;;;;;5046769;28;20500;-66
2022/06/25 18:44:46;;;;;;;20.20;11.30;;;4.50;98.40;;;;;;5029041;28;20029;-66
2022/06/25 18:47:14;;;;;;;15.90;9.77;;;4.50;98.40;;;;;;5047119;28;20089;-66
2022/06/25 18:49:41;;;;;;;17.38;12.18;;;4.50;98.30;;;;;;5046821;28;20436;-66
2022/06/25 18:52:09;;;;;;;23.17;13.40;;;4.60;99.40;;;;;;5044312;28;20141;-66
2022/06/25 18:54:37;;;;;;;21.25;11.82;;;4.80;99.70;;;;;;5047182;28;20025;-67
2022/06/25 18:57:04;;;;;;;18.98;11.88;;;4.80;99.50;;;;;;5044453;28;20385;-66
2022/06/25 18:59:34;;;;;;;23.27;12.07;;;4.80;99.10;;;;;;5029133;28;20068;-66
2022/06/25 19:02:01;;;;;;;18.67;11.38;;;4.80;99.00;;;;;;5032283;28;20375;-66
2022/06/25 19:04:28;;;;;;;14.95;9.23;;;4.60;98.40;;;;;;5045284;28;20100;-66
2022/06/25 19:06:56;;;;;;;17.90;8.52;;;4.50;98.30;;;;;;5044495;28;20021;-66
2022/06/25 19:09:23;;;;;;;12.45;7.97;;;4.40;98.10;;;;;;5040137;28;20025;-67
2022/06/25 19:11:51;;;;;;;14.50;8.02;;;4.40;98.30;;;;;;5041153;28;20385;-66
2022/06/25 19:14:18;;;;;;;14.65;8.05;;;4.30;98.30;;;;;;5047655;28;20063;-66
2022/06/25 19:16:45;;;;;;;11.90;7.30;;;4.30;98.50;;;;;;5035720;28;20110;-66
2022/06/25 19:19:13;;;;;;;13.32;7.13;;;4.20;98.40;;;;;;5046963;28;20033;-66
2022/06/25 19:21:40;;;;;;;14.43;7.35;;;4.20;98.30;;;;;;5042412;28;20060;-66
2022/06/25 19:24:08;;;;;;;13.32;7.63;;;4.20;98.30;;;;;;5043459;28;20026;-67